Time;durP1;ratioP1;P1;durP2;ratioP2;P2;SDS_P1;SDS_P2;PMS_P1;PMS_P2;Temp;Humidity;BMP_temperature;BMP_pressure;BME280_temperature;BME280_humidity;BME280_pressure;Samples;Min_cycle;Max_cycle;Signal;HPM_P1;HPM_P2
2022/09/27 00:00:11;;;;;;;;;;;;;;;15.08;80.95;99239.97;5282852;33;34982;-75
2022/09/27 00:03:13;;;;;;;;;;;;;;;14.92;82.07;99241.25;5295544;33;44464;-81
2022/09/27 00:06:18;;;;;;;;;;;;;;;15.69;77.00;99224.69;5267974;33;34070;-67
2022/09/27 00:09:19;;;;;;;;;;;;;;;15.93;75.49;99221.91;5265428;33;34458;-67
2022/09/27 00:12:21;;;;;;;;;;;;;;;15.91;75.56;99221.19;5265671;33;34338;-80
2022/09/27 00:15:23;;;;;;;;;;;;;;;16.34;73.50;99219.53;5296096;33;33585;-80
2022/09/27 00:18:25;;;;;;;;;;;;;;;16.46;72.75;99219.38;5270635;33;33919;-67
2022/09/27 00:21:28;;;;;;;;;;;;;;;16.44;72.33;99205.41;5282557;33;34223;-67
2022/09/27 00:24:30;;;;;;;;;;;;;;;16.01;74.10;99208.03;5296838;33;33452;-67
2022/09/27 00:27:32;;;;;;;;;;;;;;;16.58;72.49;99208.72;5279343;33;33515;-68
2022/09/27 00:30:34;;;;;;;;;;;;;;;16.78;71.04;99202.63;5298661;33;33836;-68
2022/09/27 00:33:36;;;;;;;;;;;;;;;16.49;71.86;99191.78;5282174;33;34389;-68
2022/09/27 00:36:38;;;;;;;;;;;;;;;15.86;74.87;99203.97;5294529;33;33277;-66
2022/09/27 00:39:39;;;;;;;;;;;;;;;15.02;79.62;99202.56;5261471;33;33394;-68
2022/09/27 00:42:41;;;;;;;;;;;;;;;14.83;82.26;99187.22;5279570;33;43150;-80
2022/09/27 00:45:44;;;;;;;;;;;;;;;15.56;78.83;99186.00;5297827;33;33345;-68
2022/09/27 00:48:46;;;;;;;;;;;;;;;16.10;75.67;99190.53;5268953;33;33777;-68
2022/09/27 00:51:49;;;;;;;;;;;;;;;16.77;71.18;99185.87;5297165;33;33959;-79
2022/09/27 00:54:52;;;;;;;;;;;;;;;16.37;72.41;99188.31;5268800;33;33876;-66
2022/09/27 00:57:54;;;;;;;;;;;;;;;16.14;73.97;99187.53;5278593;33;34589;-75
2022/09/27 01:00:57;;;;;;;;;;;;;;;15.64;75.86;99181.81;5274561;33;33568;-81
2022/09/27 01:04:02;;;;;;;;;;;;;;;14.74;81.12;99182.62;5280801;33;34204;-67
2022/09/27 01:07:04;;;;;;;;;;;;;;;14.83;81.30;99179.31;5282809;33;33970;-66
2022/09/27 01:10:06;;;;;;;;;;;;;;;15.61;77.65;99168.78;5262432;33;34426;-67
2022/09/27 01:13:11;;;;;;;;;;;;;;;15.27;78.62;99180.34;5282246;33;34349;-79
2022/09/27 01:16:34;;;;;;;;;;;;;;;16.03;76.28;99169.00;5280444;33;44331;-66
2022/09/27 01:19:43;;;;;;;;;;;;;;;16.22;74.36;99163.88;5278860;33;33785;-81
2022/09/27 01:23:04;;;;;;;;;;;;;;;16.55;72.23;99163.88;5281803;33;44508;-67
2022/09/27 01:26:25;;;;;;;;;;;;;;;16.48;72.67;99167.03;5279573;33;33964;-69
2022/09/27 01:29:46;;;;;;;;;;;;;;;16.13;74.33;99167.28;5299594;33;33920;-67
2022/09/27 01:32:48;;;;;;;;;;;;;;;15.86;75.19;99159.78;5276200;33;45274;-79
2022/09/27 01:35:53;;;;;;;;;;;;;;;16.07;73.98;99157.19;5284537;33;33861;-67
2022/09/27 01:39:08;;;;;;;;;;;;;;;16.17;73.21;99147.53;5298942;33;34078;-67
2022/09/27 01:42:14;;;;;;;;;;;;;;;15.31;77.49;99145.56;5283075;33;33936;-80
2022/09/27 01:45:35;;;;;;;;;;;;;;;15.42;77.12;99147.37;5285581;33;34501;-66
2022/09/27 01:48:43;;;;;;;;;;;;;;;15.67;76.16;99128.62;5287484;33;34398;-67
2022/09/27 01:51:51;;;;;;;;;;;;;;;15.64;75.65;99130.66;5268158;33;44696;-80
2022/09/27 01:54:55;;;;;;;;;;;;;;;15.72;75.42;99128.25;5298806;33;33838;-75
2022/09/27 01:58:06;;;;;;;;;;;;;;;15.13;78.35;99113.44;5269774;33;33966;-81
2022/09/27 02:01:08;;;;;;;;;;;;;;;14.99;79.83;99118.94;5285065;33;33213;-78
2022/09/27 02:04:10;;;;;;;;;;;;;;;15.87;75.95;99110.28;5284160;33;33739;-74
2022/09/27 02:07:35;;;;;;;;;;;;;;;15.85;74.88;99098.97;5269993;33;43224;-66
2022/09/27 02:10:38;;;;;;;;;;;;;;;15.00;79.15;99104.75;5252255;33;34461;-81
2022/09/27 02:13:53;;;;;;;;;;;;;;;14.78;80.66;99105.59;5279733;33;33312;-81
2022/09/27 02:16:58;;;;;;;;;;;;;;;15.35;78.54;99101.16;5284895;33;33915;-80
2022/09/27 02:20:01;;;;;;;;;;;;;;;15.55;76.36;99105.72;5284247;33;34489;-80
2022/09/27 02:23:22;;;;;;;;;;;;;;;15.54;75.83;99104.03;5284468;33;33505;-81
2022/09/27 02:26:31;;;;;;;;;;;;;;;15.80;74.75;99103.78;5282080;33;34078;-81
2022/09/27 02:29:41;;;;;;;;;;;;;;;16.07;73.17;99113.94;5267395;33;33921;-66
2022/09/27 02:32:43;;;;;;;;;;;;;;;14.83;78.78;99114.00;5297116;33;47818;-67
2022/09/27 02:35:45;;;;;;;;;;;;;;;14.42;82.00;99119.75;5284291;33;33924;-68
2022/09/27 02:38:47;;;;;;;;;;;;;;;14.82;80.30;99111.50;5289957;33;34007;-82
2022/09/27 02:41:49;;;;;;;;;;;;;;;14.40;81.82;99108.44;5302764;33;33920;-80
2022/09/27 02:44:51;;;;;;;;;;;;;;;14.59;81.27;99102.66;5284862;33;34495;-80
2022/09/27 02:48:06;;;;;;;;;;;;;;;14.77;79.99;99103.06;5298548;33;33981;-66
2022/09/27 02:51:14;;;;;;;;;;;;;;;15.38;77.03;99108.84;5282683;33;33856;-67
2022/09/27 02:54:28;;;;;;;;;;;;;;;14.84;78.31;99102.47;5298217;33;44473;-80
2022/09/27 02:57:40;;;;;;;;;;;;;;;14.11;82.69;99099.22;5273777;33;34641;-73
2022/09/27 03:00:46;;;;;;;;;;;;;;;13.78;85.92;99100.72;5282732;33;45402;-67
2022/09/27 03:03:51;;;;;;;;;;;;;;;14.93;80.66;99085.03;5272319;33;33814;-67
2022/09/27 03:06:52;;;;;;;;;;;;;;;15.20;77.45;99084.69;5281782;33;36101;-67
2022/09/27 03:09:54;;;;;;;;;;;;;;;14.90;77.97;99093.22;5262654;33;34055;-80
2022/09/27 03:12:57;;;;;;;;;;;;;;;14.40;80.62;99078.53;5282112;33;34756;-67
2022/09/27 03:15:59;;;;;;;;;;;;;;;14.49;81.22;99076.09;5287557;33;34030;-81
2022/09/27 03:19:02;;;;;;;;;;;;;;;15.65;74.52;99077.59;5306975;33;34657;-67
2022/09/27 03:22:04;;;;;;;;;;;;;;;15.79;73.73;99072.97;5281070;33;34032;-65
2022/09/27 03:25:06;;;;;;;;;;;;;;;15.84;73.54;99078.72;5294073;33;34006;-68
2022/09/27 03:28:08;;;;;;;;;;;;;;;15.76;74.33;99079.34;5266823;33;34400;-80
2022/09/27 03:31:10;;;;;;;;;;;;;;;14.78;79.72;99073.00;5296214;33;33258;-67
2022/09/27 03:34:14;;;;;;;;;;;;;;;14.51;81.43;99066.22;5281231;33;45731;-66
2022/09/27 03:37:16;;;;;;;;;;;;;;;14.53;83.24;99085.44;5283502;33;34523;-81
2022/09/27 03:40:18;;;;;;;;;;;;;;;15.46;78.01;99085.28;5284479;33;32733;-80
2022/09/27 03:43:20;;;;;;;;;;;;;;;14.94;79.37;99072.63;5281412;33;33640;-67
2022/09/27 03:46:22;;;;;;;;;;;;;;;14.62;83.37;99074.19;5296325;33;34182;-80
2022/09/27 03:49:24;;;;;;;;;;;;;;;14.05;85.05;99079.37;5282003;33;34355;-68
2022/09/27 03:52:26;;;;;;;;;;;;;;;14.95;81.78;99061.97;5283213;33;33809;-75
2022/09/27 03:55:28;;;;;;;;;;;;;;;14.40;82.96;99067.97;5282207;33;34363;-68
2022/09/27 03:58:30;;;;;;;;;;;;;;;13.90;87.64;99070.78;5283916;33;34390;-81
2022/09/27 04:01:34;;;;;;;;;;;;;;;14.92;83.68;99061.34;5282933;33;33309;-81
2022/09/27 04:04:35;;;;;;;;;;;;;;;13.87;86.93;99065.72;5259775;33;34543;-81
2022/09/27 04:07:38;;;;;;;;;;;;;;;14.77;83.31;99064.22;5296319;33;33213;-75
2022/09/27 04:10:40;;;;;;;;;;;;;;;15.06;80.92;99061.09;5259199;33;33905;-67
2022/09/27 04:13:43;;;;;;;;;;;;;;;14.46;83.90;99063.09;5293850;33;45214;-67
2022/09/27 04:16:45;;;;;;;;;;;;;;;14.54;84.20;99071.25;5282871;33;34539;-81
2022/09/27 04:19:47;;;;;;;;;;;;;;;15.43;78.13;99061.69;5283250;33;34636;-81
2022/09/27 04:22:50;;;;;;;;;;;;;;;14.49;83.26;99062.87;5296771;33;33579;-68
2022/09/27 04:25:51;;;;;;;;;;;;;;;14.28;84.25;99067.09;5278247;33;33709;-82
2022/09/27 04:28:53;;;;;;;;;;;;;;;14.34;85.44;99067.47;5296799;33;34002;-67
2022/09/27 04:31:55;;;;;;;;;;;;;;;14.34;84.48;99059.53;5281206;33;34330;-73
2022/09/27 04:38:25;;;;;;;;;;;;;;;14.66;84.04;99047.50;5277639;33;35960;-67
2022/09/27 04:41:27;;;;;;;;;;;;;;;14.88;83.61;99039.59;5278838;33;34093;-81
2022/09/27 04:44:29;;;;;;;;;;;;;;;14.22;86.32;99051.69;5284323;33;33238;-68
2022/09/27 04:47:32;;;;;;;;;;;;;;;14.72;85.15;99047.03;5284738;33;33683;-67
2022/09/27 04:50:34;;;;;;;;;;;;;;;13.85;87.98;99043.00;5296852;33;34442;-74
2022/09/27 04:53:37;;;;;;;;;;;;;;;15.58;79.57;99041.06;5268041;33;34590;-68
2022/09/27 04:56:39;;;;;;;;;;;;;;;15.11;81.52;99032.47;5284815;33;35298;-80
2022/09/27 04:59:41;;;;;;;;;;;;;;;14.51;84.03;99047.72;5293753;33;34239;-67
2022/09/27 05:02:44;;;;;;;;;;;;;;;14.35;85.54;99048.00;5280376;33;44502;-66
2022/09/27 05:05:45;;;;;;;;;;;;;;;15.15;83.09;99034.78;5282237;33;33654;-82
2022/09/27 05:08:47;;;;;;;;;;;;;;;15.04;82.02;99036.56;5253364;33;34507;-81
2022/09/27 05:11:49;;;;;;;;;;;;;;;14.97;81.88;99030.94;5289677;33;33901;-80
2022/09/27 05:14:52;;;;;;;;;;;;;;;14.57;83.48;99025.25;5268522;33;34643;-68
2022/09/27 05:17:54;;;;;;;;;;;;;;;14.16;86.60;99026.56;5272024;33;34540;-68
2022/09/27 05:20:57;;;;;;;;;;;;;;;15.07;82.70;99025.75;5291868;33;35009;-82
2022/09/27 05:24:00;;;;;;;;;;;;;;;14.83;82.58;99028.53;5276142;33;34546;-67
2022/09/27 05:27:01;;;;;;;;;;;;;;;14.62;85.54;99029.25;5288667;33;33695;-69
2022/09/27 05:30:05;;;;;;;;;;;;;;;14.28;86.46;99030.09;5281465;33;34488;-77
2022/09/27 05:33:07;;;;;;;;;;;;;;;14.85;82.80;99019.50;5295639;33;33661;-68
2022/09/27 05:36:09;;;;;;;;;;;;;;;16.20;74.69;99017.37;5284510;33;33724;-67
2022/09/27 05:39:11;;;;;;;;;;;;;;;16.09;74.97;99009.47;5284788;33;35829;-68
2022/09/27 05:42:14;;;;;;;;;;;;;;;15.27;78.53;99008.31;5291520;33;34172;-83
2022/09/27 05:45:16;;;;;;;;;;;;;;;14.55;84.07;99006.84;5277269;33;33288;-80
2022/09/27 05:48:18;;;;;;;;;;;;;;;14.35;87.46;99002.22;5299609;33;34302;-71
2022/09/27 05:51:20;;;;;;;;;;;;;;;14.41;86.88;98996.47;5279302;33;33301;-77
2022/09/27 05:54:22;;;;;;;;;;;;;;;15.37;79.97;98990.69;5291193;33;34905;-77
2022/09/27 05:57:24;;;;;;;;;;;;;;;14.86;83.02;98975.38;5285491;33;32853;-70
2022/09/27 06:00:27;;;;;;;;;;;;;;;14.48;84.05;98983.66;5283154;33;33504;-80
2022/09/27 06:03:28;;;;;;;;;;;;;;;14.19;86.25;98997.28;5284712;33;33161;-80
2022/09/27 06:06:33;;;;;;;;;;;;;;;15.54;80.16;99002.56;5274405;33;33397;-78
2022/09/27 06:09:34;;;;;;;;;;;;;;;15.22;79.52;99010.47;5272443;33;34636;-69
2022/09/27 06:12:37;;;;;;;;;;;;;;;15.38;79.49;99010.91;5280378;33;33264;-73
2022/09/27 06:15:40;;;;;;;;;;;;;;;14.72;82.14;99015.28;5289728;33;33892;-71
2022/09/27 06:18:42;;;;;;;;;;;;;;;14.45;84.67;99018.25;5284976;33;45386;-76
2022/09/27 06:21:43;;;;;;;;;;;;;;;14.78;82.25;99009.53;5270215;33;33170;-73
2022/09/27 06:24:48;;;;;;;;;;;;;;;15.20;80.55;99012.38;5295458;33;34835;-72
2022/09/27 06:27:50;;;;;;;;;;;;;;;15.23;79.94;99009.50;5267901;33;34288;-73
2022/09/27 06:30:52;;;;;;;;;;;;;;;14.86;82.05;99004.47;5283650;33;34250;-73
2022/09/27 06:33:54;;;;;;;;;;;;;;;14.88;81.64;99005.22;5282778;33;33663;-70
2022/09/27 06:36:56;;;;;;;;;;;;;;;13.95;85.97;99010.53;5285934;33;32760;-73
2022/09/27 06:39:58;;;;;;;;;;;;;;;14.50;85.06;98998.47;5279404;33;34168;-70
2022/09/27 06:43:09;;;;;;;;;;;;;;;14.48;84.25;99016.22;5267485;33;33119;-66
2022/09/27 06:46:11;;;;;;;;;;;;;;;14.44;84.54;99004.19;5292411;33;36542;-67
2022/09/27 06:49:13;;;;;;;;;;;;;;;15.12;82.39;99002.41;5273862;33;33518;-70
2022/09/27 06:52:15;;;;;;;;;;;;;;;14.74;83.85;98992.19;5279539;33;33206;-73
2022/09/27 06:55:19;;;;;;;;;;;;;;;15.01;79.35;98995.34;5256382;33;34352;-81
2022/09/27 07:01:42;;;;;;;;;;;;;;;14.86;80.83;98981.50;5295852;33;44558;-72
2022/09/27 07:04:44;;;;;;;;;;;;;;;15.62;77.87;98989.56;5268236;33;34595;-72
2022/09/27 07:07:50;;;;;;;;;;;;;;;16.46;72.34;98990.47;5294750;33;33304;-74
2022/09/27 07:10:54;;;;;;;;;;;;;;;16.67;71.73;99004.53;5260109;33;33075;-69
2022/09/27 07:13:56;;;;;;;;;;;;;;;16.69;71.13;99010.56;5291248;33;33418;-68
2022/09/27 07:16:58;;;;;;;;;;;;;;;16.13;74.39;99018.03;5283803;33;34454;-76
2022/09/27 07:20:00;;;;;;;;;;;;;;;17.39;67.72;99022.19;5282624;33;33070;-70
2022/09/27 07:23:07;;;;;;;;;;;;;;;17.17;68.61;99017.91;5292720;33;34339;-70
2022/09/27 07:26:10;;;;;;;;;;;;;;;16.67;70.97;99012.50;5280639;33;33221;-71
2022/09/27 07:29:12;;;;;;;;;;;;;;;17.18;69.67;99005.47;5280783;33;46018;-71
2022/09/27 07:32:14;;;;;;;;;;;;;;;16.62;71.67;99004.13;5285766;33;33526;-70
2022/09/27 07:35:15;;;;;;;;;;;;;;;17.43;68.07;99014.75;5291543;33;33261;-69
2022/09/27 07:38:17;;;;;;;;;;;;;;;17.47;67.33;99016.19;5286517;33;33983;-69
2022/09/27 07:41:19;;;;;;;;;;;;;;;17.56;66.91;99018.00;5277467;33;33289;-68
2022/09/27 07:44:21;;;;;;;;;;;;;;;17.44;67.72;99009.31;5282382;33;33320;-71
2022/09/27 07:47:24;;;;;;;;;;;;;;;18.59;64.42;98996.13;5263228;33;33079;-67
2022/09/27 07:50:27;;;;;;;;;;;;;;;18.57;62.64;98993.63;5277340;33;34705;-68
2022/09/27 07:53:29;;;;;;;;;;;;;;;19.72;58.66;98980.75;5267627;33;35221;-64
2022/09/27 07:56:31;;;;;;;;;;;;;;;19.51;57.98;98979.31;5291777;33;34495;-72
2022/09/27 07:59:33;;;;;;;;;;;;;;;19.39;59.18;98984.88;5292331;33;33307;-76
2022/09/27 08:02:35;;;;;;;;;;;;;;;19.84;58.64;98985.88;5277293;33;34680;-79
2022/09/27 08:05:37;;;;;;;;;;;;;;;18.08;64.18;98984.88;5294999;33;32149;-73
2022/09/27 08:08:40;;;;;;;;;;;;;;;20.00;57.29;98988.66;5257460;33;33209;-71
2022/09/27 08:11:43;;;;;;;;;;;;;;;19.78;57.12;98984.63;5287986;33;44757;-79
2022/09/27 08:14:46;;;;;;;;;;;;;;;20.17;56.42;98962.97;5288538;33;33451;-73
2022/09/27 08:17:49;;;;;;;;;;;;;;;19.43;57.34;98959.59;5291645;33;34431;-72
2022/09/27 08:20:51;;;;;;;;;;;;;;;18.75;61.37;98963.63;5281822;33;34933;-79
2022/09/27 08:23:53;;;;;;;;;;;;;;;19.46;58.01;98963.81;5263770;33;33187;-69
2022/09/27 08:26:55;;;;;;;;;;;;;;;19.29;58.34;98973.44;5306056;32;33363;-71
2022/09/27 08:29:57;;;;;;;;;;;;;;;18.88;61.73;98974.78;5286923;33;33329;-76
2022/09/27 08:33:02;;;;;;;;;;;;;;;18.86;61.04;98977.56;5297665;33;33340;-77
2022/09/27 08:36:09;;;;;;;;;;;;;;;18.20;63.85;98985.59;5282280;33;31825;-71
2022/09/27 08:39:11;;;;;;;;;;;;;;;18.43;62.85;98982.63;5291161;33;34403;-69
2022/09/27 08:42:17;;;;;;;;;;;;;;;18.64;62.86;98980.59;5290919;33;42867;-74
2022/09/27 08:45:23;;;;;;;;;;;;;;;18.39;64.20;98974.91;5272621;33;33796;-70
2022/09/27 08:48:25;;;;;;;;;;;;;;;18.15;65.82;98969.22;5292965;33;33680;-70
2022/09/27 08:51:29;;;;;;;;;;;;;;;19.00;62.81;98962.97;5284302;33;34585;-74
2022/09/27 08:54:31;;;;;;;;;;;;;;;19.18;61.25;98961.16;5293279;33;34263;-77
2022/09/27 08:57:33;;;;;;;;;;;;;;;19.19;60.71;98956.66;5282526;33;33234;-71
2022/09/27 09:00:35;;;;;;;;;;;;;;;18.53;64.79;98954.97;5270714;33;33226;-75
2022/09/27 09:03:38;;;;;;;;;;;;;;;19.09;61.40;98966.56;5284526;33;33288;-73
2022/09/27 09:06:40;;;;;;;;;;;;;;;18.98;62.32;98969.41;5281079;33;35427;-71
2022/09/27 09:10:02;;;;;;;;;;;;;;;18.14;65.35;98973.69;5270652;33;45692;-69
2022/09/27 09:13:08;;;;;;;;;;;;;;;19.26;61.78;98968.44;5246625;33;34699;-73
2022/09/27 09:16:30;;;;;;;;;;;;;;;17.95;67.45;98960.41;5275555;33;33666;-70
2022/09/27 09:19:35;;;;;;;;;;;;;;;18.74;64.57;98948.63;5294891;33;33129;-75
2022/09/27 09:22:40;;;;;;;;;;;;;;;18.82;63.39;98956.75;5286033;33;33243;-78
2022/09/27 09:26:11;;;;;;;;;;;;;;;18.72;64.44;98945.28;5286179;33;43409;-73
2022/09/27 09:29:17;;;;;;;;;;;;;;;19.02;63.54;98933.53;5252422;33;46737;-70
2022/09/27 09:32:19;;;;;;;;;;;;;;;19.49;60.91;98932.34;5286213;33;34493;-68
2022/09/27 09:35:36;;;;;;;;;;;;;;;19.32;62.31;98919.88;5287476;33;34541;-75
2022/09/27 09:38:44;;;;;;;;;;;;;;;19.21;62.89;98907.59;5278469;33;33192;-73
2022/09/27 09:41:52;;;;;;;;;;;;;;;18.31;66.40;98910.97;5294439;33;44674;-71
2022/09/27 09:45:03;;;;;;;;;;;;;;;18.96;65.66;98907.50;5264475;33;33219;-73
2022/09/27 09:48:14;;;;;;;;;;;;;;;19.03;64.56;98909.41;5288483;33;32835;-71
2022/09/27 09:51:21;;;;;;;;;;;;;;;18.99;64.51;98915.16;5293068;33;46295;-69
2022/09/27 09:54:26;;;;;;;;;;;;;;;18.59;66.85;98917.16;5263076;33;34470;-72
2022/09/27 09:57:42;;;;;;;;;;;;;;;18.51;67.71;98916.22;5298410;33;33430;-74
2022/09/27 10:00:44;;;;;;;;;;;;;;;18.96;64.95;98907.50;5281310;33;44493;-73
2022/09/27 10:03:46;;;;;;;;;;;;;;;19.03;65.40;98898.75;5274366;33;32769;-71
2022/09/27 10:06:48;;;;;;;;;;;;;;;18.78;66.42;98899.44;5271150;33;35175;-69
2022/09/27 10:09:51;;;;;;;;;;;;;;;18.60;67.60;98902.03;5253321;33;34925;-71
2022/09/27 10:12:53;;;;;;;;;;;;;;;18.71;67.27;98903.69;5288386;33;35105;-70
2022/09/27 10:16:09;;;;;;;;;;;;;;;18.73;67.34;98902.56;5261573;33;34807;-70
2022/09/27 10:19:11;;;;;;;;;;;;;;;18.66;66.92;98901.44;5297072;33;43327;-71
2022/09/27 10:22:15;;;;;;;;;;;;;;;18.29;68.88;98904.09;5271213;33;33333;-72
2022/09/27 10:25:17;;;;;;;;;;;;;;;18.10;69.34;98897.03;5285265;33;33275;-74
2022/09/27 10:28:26;;;;;;;;;;;;;;;17.78;70.57;98884.91;5280851;33;34560;-72
2022/09/27 10:31:33;;;;;;;;;;;;;;;17.82;70.95;98886.28;5285925;33;34455;-74
2022/09/27 10:34:37;;;;;;;;;;;;;;;17.52;72.92;98884.62;5292691;33;33561;-72
2022/09/27 10:37:39;;;;;;;;;;;;;;;17.99;70.74;98879.44;5271503;33;34793;-77
2022/09/27 10:40:41;;;;;;;;;;;;;;;17.74;71.59;98882.69;5278211;33;33217;-70
2022/09/27 10:43:43;;;;;;;;;;;;;;;17.90;70.97;98884.75;5270521;33;44399;-69
2022/09/27 10:46:46;;;;;;;;;;;;;;;17.95;70.63;98872.72;5284209;33;33296;-70
2022/09/27 10:49:51;;;;;;;;;;;;;;;18.19;70.32;98876.72;5293496;33;32454;-79
2022/09/27 10:53:11;;;;;;;;;;;;;;;18.39;69.05;98873.81;5272813;33;34592;-76
2022/09/27 10:56:22;;;;;;;;;;;;;;;18.20;69.80;98873.91;5278967;33;46109;-71
2022/09/27 10:59:25;;;;;;;;;;;;;;;18.22;69.33;98866.59;5268462;33;33265;-70
2022/09/27 11:02:27;;;;;;;;;;;;;;;18.17;70.16;98868.88;5281837;33;34893;-74
2022/09/27 11:05:32;;;;;;;;;;;;;;;18.30;70.02;98864.09;5294974;33;34701;-73
2022/09/27 11:08:35;;;;;;;;;;;;;;;18.51;68.50;98855.03;5271146;33;33463;-69
2022/09/27 11:11:37;;;;;;;;;;;;;;;18.57;68.53;98852.63;5274749;33;33141;-75
2022/09/27 11:14:40;;;;;;;;;;;;;;;18.49;68.89;98860.50;5276847;33;33982;-74
2022/09/27 11:17:50;;;;;;;;;;;;;;;18.26;70.63;98856.53;5298191;33;44455;-73
2022/09/27 11:20:56;;;;;;;;;;;;;;;18.56;68.97;98848.28;5273869;33;34736;-73
2022/09/27 11:24:17;;;;;;;;;;;;;;;18.56;69.21;98845.62;5264703;33;33412;-72
2022/09/27 11:27:37;;;;;;;;;;;;;;;19.04;66.97;98838.34;5296899;33;44630;-74
2022/09/27 11:30:48;;;;;;;;;;;;;;;19.04;66.97;98841.84;5285496;33;33217;-71
2022/09/27 11:33:53;;;;;;;;;;;;;;;19.06;66.61;98828.38;5294515;33;44843;-71
2022/09/27 11:37:10;;;;;;;;;;;;;;;18.90;67.63;98826.41;5282486;33;34422;-69
2022/09/27 11:40:24;;;;;;;;;;;;;;;19.25;66.29;98819.41;5282023;33;44348;-67
2022/09/27 11:43:30;;;;;;;;;;;;;;;19.32;65.87;98823.12;5295768;33;35367;-70
2022/09/27 11:46:34;;;;;;;;;;;;;;;19.35;65.16;98814.84;5274491;33;34730;-70
2022/09/27 11:50:01;;;;;;;;;;;;;;;19.42;64.66;98798.06;5275327;33;46060;-71
2022/09/27 11:53:06;;;;;;;;;;;;;;;19.27;65.26;98796.13;5291591;33;34605;-68
2022/09/27 11:56:12;;;;;;;;;;;;;;;19.10;66.52;98798.63;5279871;33;33129;-68
2022/09/27 11:59:17;;;;;;;;;;;;;;;19.08;66.36;98799.78;5284396;33;44441;-67
2022/09/27 12:02:34;;;;;;;;;;;;;;;19.48;65.22;98785.97;5273380;33;33222;-73
2022/09/27 12:05:39;;;;;;;;;;;;;;;19.85;63.40;98783.09;5284518;33;33275;-70
2022/09/27 12:09:01;;;;;;;;;;;;;;;19.80;63.27;98781.87;5269740;33;36693;-71
2022/09/27 12:12:10;;;;;;;;;;;;;;;19.71;63.65;98781.00;5278032;33;34606;-73
2022/09/27 12:15:13;;;;;;;;;;;;;;;19.42;65.02;98766.09;5294554;33;44551;-70
2022/09/27 12:18:29;;;;;;;;;;;;;;;19.83;64.12;98763.72;5275146;33;34495;-70
2022/09/27 12:21:30;;;;;;;;;;;;;;;20.09;62.99;98763.69;5279214;33;33157;-72
2022/09/27 12:24:34;;;;;;;;;;;;;;;19.77;63.83;98753.69;5267167;33;33299;-70
2022/09/27 12:27:42;;;;;;;;;;;;;;;19.89;63.79;98751.59;5274827;33;35752;-70
2022/09/27 12:30:48;;;;;;;;;;;;;;;20.00;63.18;98748.66;5278845;33;44544;-70
2022/09/27 12:34:01;;;;;;;;;;;;;;;20.18;62.55;98751.25;5283235;33;33633;-74
2022/09/27 12:37:06;;;;;;;;;;;;;;;20.20;61.89;98741.25;5286960;33;33367;-71
2022/09/27 12:40:14;;;;;;;;;;;;;;;20.39;61.51;98738.31;5273057;33;36820;-71
2022/09/27 12:43:17;;;;;;;;;;;;;;;20.49;61.03;98736.37;5289042;33;44555;-68
2022/09/27 12:46:45;;;;;;;;;;;;;;;20.14;62.36;98744.53;5296549;33;33304;-72
2022/09/27 12:49:52;;;;;;;;;;;;;;;20.06;62.55;98725.84;5264808;32;44392;-85
2022/09/27 12:53:24;;;;;;;;;;;;;;;20.05;62.47;98730.34;5295340;33;33158;-78
2022/09/27 12:56:29;;;;;;;;;;;;;;;19.78;64.62;98743.91;5285936;33;34898;-72
2022/09/27 12:59:43;;;;;;;;;;;;;;;17.96;76.80;98735.31;5287817;33;33248;-77
2022/09/27 13:03:03;;;;;;;;;;;;;;;18.84;72.23;98732.00;5299785;33;44753;-73
2022/09/27 13:06:30;;;;;;;;;;;;;;;20.34;69.30;98724.59;5283186;33;46824;-73
2022/09/27 13:09:32;;;;;;;;;;;;;;;24.27;53.45;98709.19;5268268;33;33231;-74
2022/09/27 13:12:34;;;;;;;;;;;;;;;25.33;49.39;98702.25;5259853;33;1010675;-78
2022/09/27 13:15:38;;;;;;;;;;;;;;;24.19;50.59;98706.63;5264591;33;33184;-77
2022/09/27 13:18:46;;;;;;;;;;;;;;;23.91;51.31;98706.47;5293441;33;33744;-75
2022/09/27 13:21:48;;;;;;;;;;;;;;;21.89;58.36;98700.56;5295224;33;43326;-76
2022/09/27 13:24:50;;;;;;;;;;;;;;;21.76;58.58;98695.75;5293789;33;33636;-74
2022/09/27 13:27:52;;;;;;;;;;;;;;;21.15;63.26;98688.38;5288123;33;33253;-73
2022/09/27 13:30:55;;;;;;;;;;;;;;;21.72;59.44;98690.97;5281540;33;33293;-82
2022/09/27 13:33:57;;;;;;;;;;;;;;;20.88;63.02;98695.72;5300004;33;33606;-77
2022/09/27 13:36:59;;;;;;;;;;;;;;;21.57;61.96;98693.47;5286056;33;33190;-73
2022/09/27 13:40:15;;;;;;;;;;;;;;;21.35;61.91;98687.03;5287065;33;33157;-73
2022/09/27 13:43:26;;;;;;;;;;;;;;;22.62;55.95;98678.81;5271988;33;44527;-75
2022/09/27 13:46:28;;;;;;;;;;;;;;;22.10;57.19;98684.81;5281718;33;36094;-78
2022/09/27 13:49:37;;;;;;;;;;;;;;;20.72;60.55;98683.19;5282190;33;33625;-78
2022/09/27 13:52:41;;;;;;;;;;;;;;;20.72;60.59;98677.00;5272093;33;33214;-80
2022/09/27 13:55:46;;;;;;;;;;;;;;;20.07;63.14;98674.19;5271833;33;44545;-79
2022/09/27 13:59:01;;;;;;;;;;;;;;;21.05;58.99;98664.47;5269500;33;33532;-78
2022/09/27 14:02:11;;;;;;;;;;;;;;;21.14;59.33;98668.00;5288939;33;33322;-78
2022/09/27 14:05:16;;;;;;;;;;;;;;;21.03;59.41;98669.16;5277945;33;43641;-78
2022/09/27 14:08:27;;;;;;;;;;;;;;;21.00;59.18;98669.53;5264347;33;34974;-79
2022/09/27 14:11:31;;;;;;;;;;;;;;;20.36;61.07;98653.28;5262187;33;33605;-79
2022/09/27 14:14:33;;;;;;;;;;;;;;;20.52;60.85;98671.16;5252569;33;33159;-66
2022/09/27 14:17:39;;;;;;;;;;;;;;;19.93;63.02;98711.13;5279841;33;33180;-69
2022/09/27 14:20:42;;;;;;;;;;;;;;;18.54;66.32;98732.34;5269391;33;44821;-68
2022/09/27 14:23:44;;;;;;;;;;;;;;;18.64;63.38;98744.59;5279769;33;34173;-74
2022/09/27 14:26:46;;;;;;;;;;;;;;;17.64;66.53;98748.97;5283240;33;34972;-69
2022/09/27 14:29:49;;;;;;;;;;;;;;;16.93;69.89;98752.84;5278711;33;35079;-67
2022/09/27 14:32:57;;;;;;;;;;;;;;;16.50;73.01;98753.22;5286962;33;33970;-69
2022/09/27 14:39:25;;;;;;;;;;;;;;;16.98;69.85;98747.12;5282829;33;33471;-67
2022/09/27 14:42:27;;;;;;;;;;;;;;;16.42;68.72;98756.56;5284466;33;34060;-67
2022/09/27 14:45:35;;;;;;;;;;;;;;;15.73;72.36;98755.62;5272920;33;34250;-68
2022/09/27 14:48:37;;;;;;;;;;;;;;;16.09;71.69;98767.47;5293826;33;33656;-78
2022/09/27 14:51:39;;;;;;;;;;;;;;;15.92;72.04;98763.66;5261457;33;34586;-67
2022/09/27 14:54:43;;;;;;;;;;;;;;;15.23;78.13;98766.00;5293076;33;43454;-68
2022/09/27 14:57:47;;;;;;;;;;;;;;;15.51;75.98;98775.94;5281241;33;34648;-66
2022/09/27 15:00:49;;;;;;;;;;;;;;;15.41;77.81;98772.41;5274098;33;33925;-68
2022/09/27 15:03:52;;;;;;;;;;;;;;;16.05;74.66;98774.03;5290265;33;32082;-77
2022/09/27 15:06:54;;;;;;;;;;;;;;;16.27;73.56;98779.09;5274117;33;33849;-79
2022/09/27 15:09:56;;;;;;;;;;;;;;;16.10;73.25;98779.75;5264282;33;34303;-66
2022/09/27 15:13:00;;;;;;;;;;;;;;;15.93;74.78;98770.62;5280841;33;33615;-79
2022/09/27 15:16:10;;;;;;;;;;;;;;;16.14;73.98;98776.69;5284764;33;34198;-66
2022/09/27 15:19:17;;;;;;;;;;;;;;;16.68;71.14;98777.25;5268262;33;45227;-78
2022/09/27 15:22:32;;;;;;;;;;;;;;;15.30;71.05;98785.69;5284207;33;33039;-78
2022/09/27 15:25:35;;;;;;;;;;;;;;;16.20;70.45;98785.94;5296983;33;33679;-67
2022/09/27 15:28:40;;;;;;;;;;;;;;;16.39;66.98;98778.03;5279976;33;33735;-79
2022/09/27 15:31:42;;;;;;;;;;;;;;;15.13;66.98;98782.66;5299996;33;44637;-67
2022/09/27 15:34:44;;;;;;;;;;;;;;;15.35;65.49;98787.00;5284525;33;33892;-77
2022/09/27 15:37:46;;;;;;;;;;;;;;;14.93;66.57;98794.03;5295811;33;33271;-77
2022/09/27 15:40:48;;;;;;;;;;;;;;;14.66;66.62;98799.78;5292957;33;34290;-79
2022/09/27 15:43:51;;;;;;;;;;;;;;;14.28;70.05;98816.88;5280814;33;34415;-68
2022/09/27 15:46:53;;;;;;;;;;;;;;;14.77;67.70;98815.62;5277226;33;35151;-67
2022/09/27 15:49:55;;;;;;;;;;;;;;;14.02;69.56;98826.84;5272479;33;34166;-78
2022/09/27 15:52:57;;;;;;;;;;;;;;;14.42;68.56;98814.94;5298460;33;34323;-80
2022/09/27 15:56:05;;;;;;;;;;;;;;;14.15;68.17;98817.97;5273896;33;34370;-78
2022/09/27 15:59:12;;;;;;;;;;;;;;;14.33;67.97;98830.56;5277403;33;34050;-66
2022/09/27 16:02:15;;;;;;;;;;;;;;;14.76;67.57;98837.75;5278855;33;45252;-79
2022/09/27 16:05:17;;;;;;;;;;;;;;;15.12;65.13;98833.88;5281901;33;34463;-78
2022/09/27 16:08:19;;;;;;;;;;;;;;;14.38;68.85;98843.41;5270237;33;33237;-67
2022/09/27 16:11:21;;;;;;;;;;;;;;;13.91;69.54;98849.75;5273681;33;34178;-67
2022/09/27 16:14:23;;;;;;;;;;;;;;;14.44;68.78;98837.66;5298711;33;33219;-80